sensor_id;sensor_type;location;lat;lon;timestamp;temperature;humidity
70079;DHT22;57451;52.496;13.456;2023-08-30T00:01:43;15.80;76.60
70079;DHT22;57451;52.496;13.456;2023-08-30T00:04:10;15.80;76.70
70079;DHT22;57451;52.496;13.456;2023-08-30T00:06:37;15.80;76.80
70079;DHT22;57451;52.496;13.456;2023-08-30T00:09:05;15.80;76.80
70079;DHT22;57451;52.496;13.456;2023-08-30T00:11:32;15.80;76.50
70079;DHT22;57451;52.496;13.456;2023-08-30T00:14:02;15.80;76.70
70079;DHT22;57451;52.496;13.456;2023-08-30T00:16:30;15.80;76.80
70079;DHT22;57451;52.496;13.456;2023-08-30T00:18:59;15.80;76.60
70079;DHT22;57451;52.496;13.456;2023-08-30T00:21:27;15.80;76.50
70079;DHT22;57451;52.496;13.456;2023-08-30T00:23:54;15.80;76.80
70079;DHT22;57451;52.496;13.456;2023-08-30T00:26:21;15.80;76.60
70079;DHT22;57451;52.496;13.456;2023-08-30T00:28:49;15.80;76.60
70079;DHT22;57451;52.496;13.456;2023-08-30T00:31:16;15.80;76.70
70079;DHT22;57451;52.496;13.456;2023-08-30T00:33:44;15.80;76.70
70079;DHT22;57451;52.496;13.456;2023-08-30T00:36:13;15.80;76.60
70079;DHT22;57451;52.496;13.456;2023-08-30T00:38:41;15.80;76.60
70079;DHT22;57451;52.496;13.456;2023-08-30T00:41:08;15.80;77.10
70079;DHT22;57451;52.496;13.456;2023-08-30T00:43:35;15.80;77.00
70079;DHT22;57451;52.496;13.456;2023-08-30T00:46:03;15.80;77.00
70079;DHT22;57451;52.496;13.456;2023-08-30T00:48:30;15.80;77.20
70079;DHT22;57451;52.496;13.456;2023-08-30T00:50:58;15.80;77.20
70079;DHT22;57451;52.496;13.456;2023-08-30T00:53:27;15.80;76.90
70079;DHT22;57451;52.496;13.456;2023-08-30T00:55:54;15.80;76.90
70079;DHT22;57451;52.496;13.456;2023-08-30T00:58:22;15.80;76.40
70079;DHT22;57451;52.496;13.456;2023-08-30T01:00:49;15.80;76.80
70079;DHT22;57451;52.496;13.456;2023-08-30T01:03:17;15.80;76.50
70079;DHT22;57451;52.496;13.456;2023-08-30T01:05:46;15.80;76.80
70079;DHT22;57451;52.496;13.456;2023-08-30T01:08:14;15.80;77.00
70079;DHT22;57451;52.496;13.456;2023-08-30T01:10:49;15.80;76.90
70079;DHT22;57451;52.496;13.456;2023-08-30T01:13:19;15.70;77.30
70079;DHT22;57451;52.496;13.456;2023-08-30T01:15:48;15.70;77.00
70079;DHT22;57451;52.496;13.456;2023-08-30T01:18:17;15.80;77.40
70079;DHT22;57451;52.496;13.456;2023-08-30T01:20:48;15.70;76.80
70079;DHT22;57451;52.496;13.456;2023-08-30T01:23:26;15.70;76.30
70079;DHT22;57451;52.496;13.456;2023-08-30T01:26:07;15.70;77.10
70079;DHT22;57451;52.496;13.456;2023-08-30T01:28:38;15.70;77.30
70079;DHT22;57451;52.496;13.456;2023-08-30T01:31:06;15.70;77.30
70079;DHT22;57451;52.496;13.456;2023-08-30T01:33:35;15.70;77.30
70079;DHT22;57451;52.496;13.456;2023-08-30T01:36:04;15.70;77.60
70079;DHT22;57451;52.496;13.456;2023-08-30T01:38:34;15.70;77.40
70079;DHT22;57451;52.496;13.456;2023-08-30T01:41:02;15.70;77.30
70079;DHT22;57451;52.496;13.456;2023-08-30T01:43:30;15.70;77.10
70079;DHT22;57451;52.496;13.456;2023-08-30T01:46:00;15.60;77.30
70079;DHT22;57451;52.496;13.456;2023-08-30T01:48:29;15.60;77.30
70079;DHT22;57451;52.496;13.456;2023-08-30T01:50:59;15.60;77.20
70079;DHT22;57451;52.496;13.456;2023-08-30T01:53:28;15.60;77.50
70079;DHT22;57451;52.496;13.456;2023-08-30T01:55:56;15.60;77.30
70079;DHT22;57451;52.496;13.456;2023-08-30T01:58:25;15.60;77.50
70079;DHT22;57451;52.496;13.456;2023-08-30T02:00:52;15.60;77.10
70079;DHT22;57451;52.496;13.456;2023-08-30T02:03:21;15.60;77.20
70079;DHT22;57451;52.496;13.456;2023-08-30T02:05:56;15.60;77.30
70079;DHT22;57451;52.496;13.456;2023-08-30T02:08:26;15.60;77.40
70079;DHT22;57451;52.496;13.456;2023-08-30T02:11:02;15.60;77.10
70079;DHT22;57451;52.496;13.456;2023-08-30T02:13:33;15.60;77.20
70079;DHT22;57451;52.496;13.456;2023-08-30T02:16:02;15.60;77.30
70079;DHT22;57451;52.496;13.456;2023-08-30T02:18:32;15.60;77.10
70079;DHT22;57451;52.496;13.456;2023-08-30T02:21:01;15.60;77.20
70079;DHT22;57451;52.496;13.456;2023-08-30T02:23:28;15.50;77.20
70079;DHT22;57451;52.496;13.456;2023-08-30T02:25:57;15.50;76.90
70079;DHT22;57451;52.496;13.456;2023-08-30T02:28:24;15.50;77.20
70079;DHT22;57451;52.496;13.456;2023-08-30T02:30:53;15.50;77.20
70079;DHT22;57451;52.496;13.456;2023-08-30T02:33:21;15.50;77.10
70079;DHT22;57451;52.496;13.456;2023-08-30T02:35:50;15.50;77.10
70079;DHT22;57451;52.496;13.456;2023-08-30T02:38:17;15.50;76.90
70079;DHT22;57451;52.496;13.456;2023-08-30T02:40:45;15.50;76.90
70079;DHT22;57451;52.496;13.456;2023-08-30T02:43:12;15.50;76.70
70079;DHT22;57451;52.496;13.456;2023-08-30T02:45:39;15.50;76.70
70079;DHT22;57451;52.496;13.456;2023-08-30T02:48:07;15.50;77.00
70079;DHT22;57451;52.496;13.456;2023-08-30T02:50:35;15.50;77.00
70079;DHT22;57451;52.496;13.456;2023-08-30T02:53:04;15.50;77.10
70079;DHT22;57451;52.496;13.456;2023-08-30T02:55:31;15.40;77.00
70079;DHT22;57451;52.496;13.456;2023-08-30T02:57:58;15.30;77.40
70079;DHT22;57451;52.496;13.456;2023-08-30T03:00:27;15.30;77.50
70079;DHT22;57451;52.496;13.456;2023-08-30T03:02:56;15.30;77.50
70079;DHT22;57451;52.496;13.456;2023-08-30T03:05:24;15.30;77.20
70079;DHT22;57451;52.496;13.456;2023-08-30T03:07:52;15.30;77.40
70079;DHT22;57451;52.496;13.456;2023-08-30T03:10:23;15.30;77.30
70079;DHT22;57451;52.496;13.456;2023-08-30T03:12:51;15.20;77.30
70079;DHT22;57451;52.496;13.456;2023-08-30T03:15:19;15.20;77.30
70079;DHT22;57451;52.496;13.456;2023-08-30T03:17:47;15.20;77.40
70079;DHT22;57451;52.496;13.456;2023-08-30T03:20:14;15.20;77.10
70079;DHT22;57451;52.496;13.456;2023-08-30T03:22:42;15.20;77.30
70079;DHT22;57451;52.496;13.456;2023-08-30T03:25:09;15.10;77.30
70079;DHT22;57451;52.496;13.456;2023-08-30T03:27:40;15.10;77.10
70079;DHT22;57451;52.496;13.456;2023-08-30T03:30:08;15.10;77.20
70079;DHT22;57451;52.496;13.456;2023-08-30T03:32:36;15.10;77.50
70079;DHT22;57451;52.496;13.456;2023-08-30T03:35:04;15.10;77.40
70079;DHT22;57451;52.496;13.456;2023-08-30T03:37:32;15.00;77.60
70079;DHT22;57451;52.496;13.456;2023-08-30T03:40:01;15.00;77.40
70079;DHT22;57451;52.496;13.456;2023-08-30T03:42:29;15.00;77.50
70079;DHT22;57451;52.496;13.456;2023-08-30T03:44:57;14.90;77.80
70079;DHT22;57451;52.496;13.456;2023-08-30T03:47:25;14.90;78.10
70079;DHT22;57451;52.496;13.456;2023-08-30T03:49:52;14.90;78.00
70079;DHT22;57451;52.496;13.456;2023-08-30T03:52:19;14.90;78.10
70079;DHT22;57451;52.496;13.456;2023-08-30T03:54:47;14.90;77.90
70079;DHT22;57451;52.496;13.456;2023-08-30T03:57:14;14.90;78.00
70079;DHT22;57451;52.496;13.456;2023-08-30T03:59:42;14.90;78.10
70079;DHT22;57451;52.496;13.456;2023-08-30T04:02:10;14.90;78.10
70079;DHT22;57451;52.496;13.456;2023-08-30T04:04:38;14.90;78.30
70079;DHT22;57451;52.496;13.456;2023-08-30T04:07:05;14.80;78.20
70079;DHT22;57451;52.496;13.456;2023-08-30T04:09:33;14.90;78.10
70079;DHT22;57451;52.496;13.456;2023-08-30T04:12:00;14.90;78.00
70079;DHT22;57451;52.496;13.456;2023-08-30T04:14:28;14.90;78.00
70079;DHT22;57451;52.496;13.456;2023-08-30T04:16:58;14.90;78.20
70079;DHT22;57451;52.496;13.456;2023-08-30T04:19:26;14.90;78.00
70079;DHT22;57451;52.496;13.456;2023-08-30T04:21:54;14.80;77.80
70079;DHT22;57451;52.496;13.456;2023-08-30T04:24:21;14.90;78.00
70079;DHT22;57451;52.496;13.456;2023-08-30T04:26:49;14.80;78.20
70079;DHT22;57451;52.496;13.456;2023-08-30T04:29:20;14.80;78.10
70079;DHT22;57451;52.496;13.456;2023-08-30T04:31:47;14.80;78.20
70079;DHT22;57451;52.496;13.456;2023-08-30T04:34:15;14.80;78.30
70079;DHT22;57451;52.496;13.456;2023-08-30T04:36:44;14.80;78.00
70079;DHT22;57451;52.496;13.456;2023-08-30T04:39:12;14.80;78.10
70079;DHT22;57451;52.496;13.456;2023-08-30T04:41:41;14.80;78.00
70079;DHT22;57451;52.496;13.456;2023-08-30T04:44:09;14.80;77.60
70079;DHT22;57451;52.496;13.456;2023-08-30T04:46:36;14.80;77.40
70079;DHT22;57451;52.496;13.456;2023-08-30T04:49:04;14.80;77.10
70079;DHT22;57451;52.496;13.456;2023-08-30T04:51:32;14.80;77.30
70079;DHT22;57451;52.496;13.456;2023-08-30T04:54:01;14.80;77.40
70079;DHT22;57451;52.496;13.456;2023-08-30T04:56:28;14.80;77.50
70079;DHT22;57451;52.496;13.456;2023-08-30T04:58:56;14.80;77.50
70079;DHT22;57451;52.496;13.456;2023-08-30T05:01:24;14.90;77.50
70079;DHT22;57451;52.496;13.456;2023-08-30T05:03:55;14.90;77.50
70079;DHT22;57451;52.496;13.456;2023-08-30T05:06:23;14.90;77.60
70079;DHT22;57451;52.496;13.456;2023-08-30T05:08:51;14.90;77.60
70079;DHT22;57451;52.496;13.456;2023-08-30T05:11:19;14.90;77.90
70079;DHT22;57451;52.496;13.456;2023-08-30T05:13:47;14.90;77.60
70079;DHT22;57451;52.496;13.456;2023-08-30T05:16:14;15.00;77.90
70079;DHT22;57451;52.496;13.456;2023-08-30T05:18:43;15.00;78.00
70079;DHT22;57451;52.496;13.456;2023-08-30T05:21:11;15.00;78.20
70079;DHT22;57451;52.496;13.456;2023-08-30T05:23:39;15.10;78.10
70079;DHT22;57451;52.496;13.456;2023-08-30T05:26:09;15.10;78.30
70079;DHT22;57451;52.496;13.456;2023-08-30T05:28:40;15.10;78.60
70079;DHT22;57451;52.496;13.456;2023-08-30T05:31:08;15.10;78.50
70079;DHT22;57451;52.496;13.456;2023-08-30T05:33:59;15.10;78.30
70079;DHT22;57451;52.496;13.456;2023-08-30T05:36:45;15.10;78.10
70079;DHT22;57451;52.496;13.456;2023-08-30T05:39:32;15.10;78.00
70079;DHT22;57451;52.496;13.456;2023-08-30T05:42:00;15.20;77.90
70079;DHT22;57451;52.496;13.456;2023-08-30T05:44:29;15.20;77.70
70079;DHT22;57451;52.496;13.456;2023-08-30T05:46:56;15.20;77.80
70079;DHT22;57451;52.496;13.456;2023-08-30T05:49:24;15.20;77.80
70079;DHT22;57451;52.496;13.456;2023-08-30T05:51:51;15.30;77.80
70079;DHT22;57451;52.496;13.456;2023-08-30T05:54:19;15.30;77.60
70079;DHT22;57451;52.496;13.456;2023-08-30T05:56:46;15.30;77.50
70079;DHT22;57451;52.496;13.456;2023-08-30T05:59:13;15.30;77.80
70079;DHT22;57451;52.496;13.456;2023-08-30T06:01:42;15.40;77.40
70079;DHT22;57451;52.496;13.456;2023-08-30T06:04:09;15.40;77.70
70079;DHT22;57451;52.496;13.456;2023-08-30T06:06:37;15.40;77.90
70079;DHT22;57451;52.496;13.456;2023-08-30T06:09:04;15.50;78.10
70079;DHT22;57451;52.496;13.456;2023-08-30T06:11:32;15.50;78.10
70079;DHT22;57451;52.496;13.456;2023-08-30T06:13:59;15.50;78.10
70079;DHT22;57451;52.496;13.456;2023-08-30T06:16:27;15.60;78.00
70079;DHT22;57451;52.496;13.456;2023-08-30T06:18:56;15.60;77.80
70079;DHT22;57451;52.496;13.456;2023-08-30T06:21:26;15.70;77.60
70079;DHT22;57451;52.496;13.456;2023-08-30T06:23:53;15.70;77.30
70079;DHT22;57451;52.496;13.456;2023-08-30T06:26:21;15.80;77.30
70079;DHT22;57451;52.496;13.456;2023-08-30T06:28:49;15.80;76.90
70079;DHT22;57451;52.496;13.456;2023-08-30T06:31:30;15.90;76.60
70079;DHT22;57451;52.496;13.456;2023-08-30T06:34:01;15.90;76.40
70079;DHT22;57451;52.496;13.456;2023-08-30T06:36:29;15.90;76.50
70079;DHT22;57451;52.496;13.456;2023-08-30T06:38:56;16.00;76.40
70079;DHT22;57451;52.496;13.456;2023-08-30T06:41:23;16.00;76.30
70079;DHT22;57451;52.496;13.456;2023-08-30T06:43:51;16.00;76.10
70079;DHT22;57451;52.496;13.456;2023-08-30T06:46:18;16.00;76.20
70079;DHT22;57451;52.496;13.456;2023-08-30T06:48:45;16.10;76.10
70079;DHT22;57451;52.496;13.456;2023-08-30T06:51:14;16.10;75.90
70079;DHT22;57451;52.496;13.456;2023-08-30T06:53:41;16.10;75.90
70079;DHT22;57451;52.496;13.456;2023-08-30T06:56:09;16.20;75.50
70079;DHT22;57451;52.496;13.456;2023-08-30T06:58:36;16.20;75.50
70079;DHT22;57451;52.496;13.456;2023-08-30T07:01:04;16.20;75.60
70079;DHT22;57451;52.496;13.456;2023-08-30T07:03:31;16.30;75.30
70079;DHT22;57451;52.496;13.456;2023-08-30T07:05:58;16.30;75.20
70079;DHT22;57451;52.496;13.456;2023-08-30T07:08:27;16.40;75.20
70079;DHT22;57451;52.496;13.456;2023-08-30T07:10:55;16.50;75.30
70079;DHT22;57451;52.496;13.456;2023-08-30T07:13:23;16.50;74.80
70079;DHT22;57451;52.496;13.456;2023-08-30T07:15:50;16.50;74.70
70079;DHT22;57451;52.496;13.456;2023-08-30T07:18:18;16.60;74.80
70079;DHT22;57451;52.496;13.456;2023-08-30T07:20:45;16.60;74.60
70079;DHT22;57451;52.496;13.456;2023-08-30T07:23:12;16.70;74.60
70079;DHT22;57451;52.496;13.456;2023-08-30T07:25:41;16.80;74.40
70079;DHT22;57451;52.496;13.456;2023-08-30T07:28:10;16.80;74.40
70079;DHT22;57451;52.496;13.456;2023-08-30T07:30:38;16.90;74.20
70079;DHT22;57451;52.496;13.456;2023-08-30T07:33:05;16.90;73.90
70079;DHT22;57451;52.496;13.456;2023-08-30T07:35:32;17.00;73.70
70079;DHT22;57451;52.496;13.456;2023-08-30T07:38:00;17.10;73.20
70079;DHT22;57451;52.496;13.456;2023-08-30T07:40:27;17.10;72.70
70079;DHT22;57451;52.496;13.456;2023-08-30T07:42:57;17.20;72.00
70079;DHT22;57451;52.496;13.456;2023-08-30T07:45:26;17.20;71.80
70079;DHT22;57451;52.496;13.456;2023-08-30T07:47:54;17.30;71.60
70079;DHT22;57451;52.496;13.456;2023-08-30T07:50:21;17.30;71.40
70079;DHT22;57451;52.496;13.456;2023-08-30T07:52:49;17.40;71.40
70079;DHT22;57451;52.496;13.456;2023-08-30T07:55:18;17.40;71.40
70079;DHT22;57451;52.496;13.456;2023-08-30T07:57:46;17.40;70.90
70079;DHT22;57451;52.496;13.456;2023-08-30T08:00:15;17.50;70.90
70079;DHT22;57451;52.496;13.456;2023-08-30T08:02:44;17.50;70.40
70079;DHT22;57451;52.496;13.456;2023-08-30T08:05:12;17.50;70.10
70079;DHT22;57451;52.496;13.456;2023-08-30T08:07:42;17.50;70.10
70079;DHT22;57451;52.496;13.456;2023-08-30T08:10:10;17.50;70.00
70079;DHT22;57451;52.496;13.456;2023-08-30T08:12:37;17.50;69.60
70079;DHT22;57451;52.496;13.456;2023-08-30T08:15:06;17.60;69.60
70079;DHT22;57451;52.496;13.456;2023-08-30T08:17:34;17.60;69.40
70079;DHT22;57451;52.496;13.456;2023-08-30T08:20:03;17.60;69.60
70079;DHT22;57451;52.496;13.456;2023-08-30T08:22:31;17.60;69.60
70079;DHT22;57451;52.496;13.456;2023-08-30T08:24:59;17.60;69.20
70079;DHT22;57451;52.496;13.456;2023-08-30T08:27:26;17.60;68.80
70079;DHT22;57451;52.496;13.456;2023-08-30T08:29:53;17.60;68.80
70079;DHT22;57451;52.496;13.456;2023-08-30T08:32:21;17.60;68.70
70079;DHT22;57451;52.496;13.456;2023-08-30T08:34:50;17.70;68.80
70079;DHT22;57451;52.496;13.456;2023-08-30T08:37:17;17.80;68.40
70079;DHT22;57451;52.496;13.456;2023-08-30T08:39:44;17.80;68.10
70079;DHT22;57451;52.496;13.456;2023-08-30T08:42:16;17.80;67.70
70079;DHT22;57451;52.496;13.456;2023-08-30T08:44:45;17.90;67.90
70079;DHT22;57451;52.496;13.456;2023-08-30T08:47:13;17.90;67.80
70079;DHT22;57451;52.496;13.456;2023-08-30T08:49:42;18.00;67.90
70079;DHT22;57451;52.496;13.456;2023-08-30T08:52:11;18.00;67.80
70079;DHT22;57451;52.496;13.456;2023-08-30T08:54:57;18.10;67.40
70079;DHT22;57451;52.496;13.456;2023-08-30T08:57:29;18.20;67.90
70079;DHT22;57451;52.496;13.456;2023-08-30T08:59:58;18.20;67.20
70079;DHT22;57451;52.496;13.456;2023-08-30T09:02:26;18.20;67.00
70079;DHT22;57451;52.496;13.456;2023-08-30T09:04:57;18.30;67.30
70079;DHT22;57451;52.496;13.456;2023-08-30T09:07:27;18.40;67.10
70079;DHT22;57451;52.496;13.456;2023-08-30T09:09:58;18.50;67.50
70079;DHT22;57451;52.496;13.456;2023-08-30T09:12:25;18.60;67.60
70079;DHT22;57451;52.496;13.456;2023-08-30T09:14:54;18.70;67.50
70079;DHT22;57451;52.496;13.456;2023-08-30T09:17:22;18.80;66.50
70079;DHT22;57451;52.496;13.456;2023-08-30T09:19:50;18.90;66.40
70079;DHT22;57451;52.496;13.456;2023-08-30T09:22:18;19.00;65.30
70079;DHT22;57451;52.496;13.456;2023-08-30T09:24:46;19.10;65.60
70079;DHT22;57451;52.496;13.456;2023-08-30T09:27:14;19.20;65.10
70079;DHT22;57451;52.496;13.456;2023-08-30T09:29:41;19.30;65.50
70079;DHT22;57451;52.496;13.456;2023-08-30T09:32:13;19.40;64.70
70079;DHT22;57451;52.496;13.456;2023-08-30T09:34:45;19.50;65.40
70079;DHT22;57451;52.496;13.456;2023-08-30T09:37:19;19.70;64.30
70079;DHT22;57451;52.496;13.456;2023-08-30T09:39:50;19.80;63.70
70079;DHT22;57451;52.496;13.456;2023-08-30T09:42:17;20.00;63.20
70079;DHT22;57451;52.496;13.456;2023-08-30T09:44:45;20.10;62.30
70079;DHT22;57451;52.496;13.456;2023-08-30T09:47:13;20.20;62.90
70079;DHT22;57451;52.496;13.456;2023-08-30T09:49:43;20.40;62.30
70079;DHT22;57451;52.496;13.456;2023-08-30T09:52:14;20.50;62.50
70079;DHT22;57451;52.496;13.456;2023-08-30T09:54:42;20.50;61.80
70079;DHT22;57451;52.496;13.456;2023-08-30T09:57:12;20.70;62.60
70079;DHT22;57451;52.496;13.456;2023-08-30T09:59:40;20.80;62.40
70079;DHT22;57451;52.496;13.456;2023-08-30T10:02:09;20.90;62.50
70079;DHT22;57451;52.496;13.456;2023-08-30T10:04:38;21.10;62.50
70079;DHT22;57451;52.496;13.456;2023-08-30T10:07:09;21.20;61.20
70079;DHT22;57451;52.496;13.456;2023-08-30T10:09:38;21.40;60.80
70079;DHT22;57451;52.496;13.456;2023-08-30T10:12:20;21.50;60.30
70079;DHT22;57451;52.496;13.456;2023-08-30T10:14:49;21.70;60.20
70079;DHT22;57451;52.496;13.456;2023-08-30T10:17:18;21.80;58.20
70079;DHT22;57451;52.496;13.456;2023-08-30T10:19:49;22.00;57.90
70079;DHT22;57451;52.496;13.456;2023-08-30T10:22:18;22.10;56.70
70079;DHT22;57451;52.496;13.456;2023-08-30T10:24:48;22.20;58.30
70079;DHT22;57451;52.496;13.456;2023-08-30T10:27:43;22.30;55.50
70079;DHT22;57451;52.496;13.456;2023-08-30T10:30:13;22.50;57.90
70079;DHT22;57451;52.496;13.456;2023-08-30T10:32:42;22.60;56.70
70079;DHT22;57451;52.496;13.456;2023-08-30T10:35:11;22.60;55.80
70079;DHT22;57451;52.496;13.456;2023-08-30T10:37:40;22.70;56.20
70079;DHT22;57451;52.496;13.456;2023-08-30T10:40:08;22.70;55.20
70079;DHT22;57451;52.496;13.456;2023-08-30T10:42:36;22.80;55.00
70079;DHT22;57451;52.496;13.456;2023-08-30T10:45:06;22.80;55.40
70079;DHT22;57451;52.496;13.456;2023-08-30T10:47:38;22.80;53.50
70079;DHT22;57451;52.496;13.456;2023-08-30T10:50:08;22.70;53.90
70079;DHT22;57451;52.496;13.456;2023-08-30T10:52:36;22.80;54.60
70079;DHT22;57451;52.496;13.456;2023-08-30T10:55:07;22.80;54.60
70079;DHT22;57451;52.496;13.456;2023-08-30T10:57:36;22.90;55.50
70079;DHT22;57451;52.496;13.456;2023-08-30T11:00:07;22.90;53.80
70079;DHT22;57451;52.496;13.456;2023-08-30T11:02:37;22.90;54.70
70079;DHT22;57451;52.496;13.456;2023-08-30T11:05:06;22.90;55.50
70079;DHT22;57451;52.496;13.456;2023-08-30T11:07:34;22.90;55.90
70079;DHT22;57451;52.496;13.456;2023-08-30T11:10:04;22.90;55.20
70079;DHT22;57451;52.496;13.456;2023-08-30T11:12:32;23.00;55.00
70079;DHT22;57451;52.496;13.456;2023-08-30T11:14:59;23.00;54.30
70079;DHT22;57451;52.496;13.456;2023-08-30T11:17:28;23.00;52.80
70079;DHT22;57451;52.496;13.456;2023-08-30T11:20:05;23.00;53.50
70079;DHT22;57451;52.496;13.456;2023-08-30T11:22:36;23.00;53.40
70079;DHT22;57451;52.496;13.456;2023-08-30T11:25:04;23.00;53.10
70079;DHT22;57451;52.496;13.456;2023-08-30T11:27:32;23.00;54.20
70079;DHT22;57451;52.496;13.456;2023-08-30T11:30:00;23.00;54.50
70079;DHT22;57451;52.496;13.456;2023-08-30T11:32:33;23.00;53.00
70079;DHT22;57451;52.496;13.456;2023-08-30T11:35:02;23.00;54.50
70079;DHT22;57451;52.496;13.456;2023-08-30T11:37:30;23.10;52.80
70079;DHT22;57451;52.496;13.456;2023-08-30T11:39:58;23.20;53.40
70079;DHT22;57451;52.496;13.456;2023-08-30T11:42:25;23.20;54.00
70079;DHT22;57451;52.496;13.456;2023-08-30T11:44:53;23.40;53.50
70079;DHT22;57451;52.496;13.456;2023-08-30T11:47:23;23.40;52.70
70079;DHT22;57451;52.496;13.456;2023-08-30T11:49:55;23.40;50.10
70079;DHT22;57451;52.496;13.456;2023-08-30T11:52:23;23.50;51.00
70079;DHT22;57451;52.496;13.456;2023-08-30T11:54:51;23.50;50.90
70079;DHT22;57451;52.496;13.456;2023-08-30T11:57:19;23.60;50.50
70079;DHT22;57451;52.496;13.456;2023-08-30T11:59:48;23.50;49.30
70079;DHT22;57451;52.496;13.456;2023-08-30T12:02:17;23.50;51.00
70079;DHT22;57451;52.496;13.456;2023-08-30T12:04:46;23.50;50.20
70079;DHT22;57451;52.496;13.456;2023-08-30T12:07:22;23.40;50.40
70079;DHT22;57451;52.496;13.456;2023-08-30T12:09:50;23.20;51.20
70079;DHT22;57451;52.496;13.456;2023-08-30T12:12:18;23.20;51.70
70079;DHT22;57451;52.496;13.456;2023-08-30T12:14:54;23.20;50.90
70079;DHT22;57451;52.496;13.456;2023-08-30T12:17:22;23.00;50.30
70079;DHT22;57451;52.496;13.456;2023-08-30T12:19:55;22.90;49.70
70079;DHT22;57451;52.496;13.456;2023-08-30T12:22:34;22.70;51.00
70079;DHT22;57451;52.496;13.456;2023-08-30T12:25:01;22.70;52.00
70079;DHT22;57451;52.496;13.456;2023-08-30T12:27:29;22.70;52.00
70079;DHT22;57451;52.496;13.456;2023-08-30T12:29:57;22.60;50.80
70079;DHT22;57451;52.496;13.456;2023-08-30T12:32:24;22.60;51.30
70079;DHT22;57451;52.496;13.456;2023-08-30T12:34:52;22.50;52.80
70079;DHT22;57451;52.496;13.456;2023-08-30T12:37:19;22.50;52.90
70079;DHT22;57451;52.496;13.456;2023-08-30T12:39:48;22.30;51.90
70079;DHT22;57451;52.496;13.456;2023-08-30T12:42:15;22.20;50.80
70079;DHT22;57451;52.496;13.456;2023-08-30T12:44:43;22.10;51.30
70079;DHT22;57451;52.496;13.456;2023-08-30T12:47:10;22.10;52.20
70079;DHT22;57451;52.496;13.456;2023-08-30T12:49:41;22.10;52.80
70079;DHT22;57451;52.496;13.456;2023-08-30T12:52:08;22.00;52.50
70079;DHT22;57451;52.496;13.456;2023-08-30T12:54:35;22.00;53.00
70079;DHT22;57451;52.496;13.456;2023-08-30T12:57:04;21.90;53.10
70079;DHT22;57451;52.496;13.456;2023-08-30T12:59:31;21.90;52.20
70079;DHT22;57451;52.496;13.456;2023-08-30T13:01:59;21.80;53.70
70079;DHT22;57451;52.496;13.456;2023-08-30T13:04:26;21.90;53.90
70079;DHT22;57451;52.496;13.456;2023-08-30T13:06:54;21.90;53.40
70079;DHT22;57451;52.496;13.456;2023-08-30T13:09:22;21.90;54.00
70079;DHT22;57451;52.496;13.456;2023-08-30T13:11:49;22.00;54.00
70079;DHT22;57451;52.496;13.456;2023-08-30T13:14:18;22.20;54.30
70079;DHT22;57451;52.496;13.456;2023-08-30T13:16:45;22.40;55.10
70079;DHT22;57451;52.496;13.456;2023-08-30T13:19:14;22.60;52.90
70079;DHT22;57451;52.496;13.456;2023-08-30T13:21:42;22.80;53.30
70079;DHT22;57451;52.496;13.456;2023-08-30T13:24:10;23.00;52.60
70079;DHT22;57451;52.496;13.456;2023-08-30T13:26:37;23.20;52.30
70079;DHT22;57451;52.496;13.456;2023-08-30T13:29:05;23.30;51.90
70079;DHT22;57451;52.496;13.456;2023-08-30T13:31:33;23.40;52.00
70079;DHT22;57451;52.496;13.456;2023-08-30T13:34:01;23.50;51.80
70079;DHT22;57451;52.496;13.456;2023-08-30T13:36:28;23.50;52.10
70079;DHT22;57451;52.496;13.456;2023-08-30T13:38:58;23.60;52.40
70079;DHT22;57451;52.496;13.456;2023-08-30T13:41:26;23.60;51.70
70079;DHT22;57451;52.496;13.456;2023-08-30T13:43:53;23.60;51.40
70079;DHT22;57451;52.496;13.456;2023-08-30T13:46:24;23.70;50.60
70079;DHT22;57451;52.496;13.456;2023-08-30T13:48:53;23.60;51.60
70079;DHT22;57451;52.496;13.456;2023-08-30T13:51:21;23.60;51.30
70079;DHT22;57451;52.496;13.456;2023-08-30T13:53:49;23.60;51.50
70079;DHT22;57451;52.496;13.456;2023-08-30T13:56:17;23.70;51.60
70079;DHT22;57451;52.496;13.456;2023-08-30T13:58:45;23.60;51.30
70079;DHT22;57451;52.496;13.456;2023-08-30T14:01:12;23.50;50.30
70079;DHT22;57451;52.496;13.456;2023-08-30T14:03:40;23.50;51.00
70079;DHT22;57451;52.496;13.456;2023-08-30T14:06:08;23.40;51.70
70079;DHT22;57451;52.496;13.456;2023-08-30T14:08:36;23.40;52.00
70079;DHT22;57451;52.496;13.456;2023-08-30T14:11:03;23.30;51.70
70079;DHT22;57451;52.496;13.456;2023-08-30T14:13:31;23.20;50.30
70079;DHT22;57451;52.496;13.456;2023-08-30T14:16:02;23.20;52.20
70079;DHT22;57451;52.496;13.456;2023-08-30T14:18:32;23.20;51.00
70079;DHT22;57451;52.496;13.456;2023-08-30T14:21:00;23.30;52.40
70079;DHT22;57451;52.496;13.456;2023-08-30T14:23:29;23.50;52.50
70079;DHT22;57451;52.496;13.456;2023-08-30T14:25:57;23.80;52.10
70079;DHT22;57451;52.496;13.456;2023-08-30T14:28:25;24.00;51.30
70079;DHT22;57451;52.496;13.456;2023-08-30T14:30:52;24.30;49.70
70079;DHT22;57451;52.496;13.456;2023-08-30T14:33:20;24.50;49.40
70079;DHT22;57451;52.496;13.456;2023-08-30T14:35:47;24.70;48.00
70079;DHT22;57451;52.496;13.456;2023-08-30T14:38:15;24.70;47.60
70079;DHT22;57451;52.496;13.456;2023-08-30T14:40:43;24.80;48.60
70079;DHT22;57451;52.496;13.456;2023-08-30T14:43:11;24.80;48.80
70079;DHT22;57451;52.496;13.456;2023-08-30T14:45:38;24.80;47.30
70079;DHT22;57451;52.496;13.456;2023-08-30T14:48:06;24.80;47.90
70079;DHT22;57451;52.496;13.456;2023-08-30T14:50:36;24.70;48.70
70079;DHT22;57451;52.496;13.456;2023-08-30T14:53:03;24.70;48.10
70079;DHT22;57451;52.496;13.456;2023-08-30T14:55:31;24.70;49.30
70079;DHT22;57451;52.496;13.456;2023-08-30T14:58:00;24.80;47.50
70079;DHT22;57451;52.496;13.456;2023-08-30T15:00:27;24.80;48.90
70079;DHT22;57451;52.496;13.456;2023-08-30T15:02:55;24.80;49.70
70079;DHT22;57451;52.496;13.456;2023-08-30T15:05:22;24.80;48.50
70079;DHT22;57451;52.496;13.456;2023-08-30T15:07:49;24.80;49.60
70079;DHT22;57451;52.496;13.456;2023-08-30T15:10:17;24.70;49.00
70079;DHT22;57451;52.496;13.456;2023-08-30T15:12:44;24.70;48.60
70079;DHT22;57451;52.496;13.456;2023-08-30T15:15:13;24.60;47.90
70079;DHT22;57451;52.496;13.456;2023-08-30T15:17:40;24.50;48.80
70079;DHT22;57451;52.496;13.456;2023-08-30T15:20:08;24.50;49.20
70079;DHT22;57451;52.496;13.456;2023-08-30T15:22:35;24.40;47.70
70079;DHT22;57451;52.496;13.456;2023-08-30T15:25:03;24.40;47.40